Atahona, Argentina
Current Conditions -  °F | °C
As of 7:00 AM on Thursday 29 Jan 2015 (Local Time) from SANT Reporting Station
Broken Clouds Broken Clouds  
Wind Chill: 21°   Ceiling: 3000
Heat Index: 21°   Visibility: 6mi
Dew Point: 20°   Wind: 5mph
Humidity: 94%   Direction: 320°NW
Pressure: 30.06"   Gusts: NA
Location:  27.41°S, 65.28°W
Report Text: SANT 291000Z 32004KT 9999 BKN030 BKN100BKN200 21/20 Q1018
Loading
Personal Weather Stations






























Interactive Weather Map New forecast layout! Learn more

10-Day Weather Forecast

Advertisements
Track Severe Weather on mobile